Time;durP1;ratioP1;P1;durP2;ratioP2;P2;SDS_P1;SDS_P2;PMS_P1;PMS_P2;Temp;Humidity;BMP_temperature;BMP_pressure;BME280_temperature;BME280_humidity;BME280_pressure;Samples;Min_cycle;Max_cycle;Signal;HPM_P1;HPM_P2
2022/08/02 00:00:51;;;;;;;3.42;2.13;;;16.70;99.90;;;;;;5049913;28;20109;-76
2022/08/02 00:03:16;;;;;;;2.28;1.40;;;16.70;99.90;;;;;;5050232;28;20021;-76
2022/08/02 00:05:42;;;;;;;3.92;1.60;;;16.70;99.90;;;;;;5049860;28;20043;-76
2022/08/02 00:08:07;;;;;;;4.57;1.98;;;16.70;99.90;;;;;;5049659;28;20029;-76
2022/08/02 00:10:33;;;;;;;2.90;1.90;;;16.60;99.90;;;;;;5051614;28;20507;-76
2022/08/02 00:12:59;;;;;;;4.53;1.75;;;16.60;99.90;;;;;;5048003;28;20075;-76
2022/08/02 00:15:25;;;;;;;3.47;1.70;;;16.60;99.90;;;;;;5049181;28;20056;-76
2022/08/02 00:17:51;;;;;;;3.03;1.70;;;16.60;99.90;;;;;;5051747;28;20470;-76
2022/08/02 00:20:16;;;;;;;4.57;1.50;;;16.60;99.90;;;;;;5053317;28;20083;-76
2022/08/02 00:22:42;;;;;;;1.70;1.40;;;16.60;99.90;;;;;;5053141;28;20025;-76
2022/08/02 00:25:08;;;;;;;3.88;1.77;;;16.60;99.90;;;;;;5053265;28;20517;-76
2022/08/02 00:27:34;;;;;;;3.45;1.50;;;16.60;99.90;;;;;;5053551;28;20028;-76
2022/08/02 00:29:59;;;;;;;2.13;1.50;;;16.60;99.90;;;;;;5053216;28;20029;-76
2022/08/02 00:32:25;;;;;;;3.35;1.50;;;16.60;99.90;;;;;;5053374;28;20056;-76
2022/08/02 00:34:51;;;;;;;2.08;1.30;;;16.60;99.90;;;;;;5053104;28;20027;-76
2022/08/02 00:37:16;;;;;;;4.72;1.60;;;16.60;99.90;;;;;;5053290;28;20021;-76
2022/08/02 00:39:42;;;;;;;3.03;1.42;;;16.60;99.90;;;;;;5053008;28;20462;-76
2022/08/02 00:42:08;;;;;;;2.60;1.58;;;16.60;99.90;;;;;;5053152;28;20033;-76
2022/08/02 00:44:34;;;;;;;1.92;1.27;;;16.60;99.90;;;;;;5053043;28;20029;-76
2022/08/02 00:47:00;;;;;;;2.65;1.77;;;16.60;99.90;;;;;;5052835;28;20083;-76
2022/08/02 00:49:25;;;;;;;3.05;1.70;;;16.60;99.90;;;;;;5053041;28;20500;-76
2022/08/02 00:51:51;;;;;;;4.03;1.90;;;16.60;99.90;;;;;;5052993;28;20131;-77
2022/08/02 00:54:17;;;;;;;3.10;1.80;;;16.60;99.90;;;;;;5052846;28;20416;-76
2022/08/02 00:56:42;;;;;;;3.13;1.50;;;16.60;99.90;;;;;;5052661;28;20056;-76
2022/08/02 00:59:08;;;;;;;3.03;1.80;;;16.60;99.90;;;;;;5051074;28;20130;-76
2022/08/02 01:01:40;;;;;;;2.72;1.60;;;16.60;99.90;;;;;;5052471;28;20021;-76
2022/08/02 01:04:07;;;;;;;4.40;1.70;;;16.60;99.90;;;;;;5052784;28;20821;-76
2022/08/02 01:06:34;;;;;;;2.60;1.90;;;16.60;99.90;;;;;;5053045;28;20545;-76
2022/08/02 01:09:00;;;;;;;2.45;1.67;;;16.60;99.90;;;;;;5052702;28;20135;-76
2022/08/02 01:11:28;;;;;;;3.60;1.60;;;16.60;99.90;;;;;;5052805;28;20036;-76
2022/08/02 01:14:07;;;;;;;4.90;2.03;;;16.60;99.90;;;;;;5042215;28;20045;-76
2022/08/02 01:16:58;;;;;;;3.92;1.70;;;16.50;99.90;;;;;;5051289;28;20025;-76
2022/08/02 01:19:36;;;;;;;3.33;1.80;;;16.50;99.90;;;;;;5052186;28;20013;-76
2022/08/02 01:22:20;;;;;;;2.92;1.95;;;16.50;99.90;;;;;;5051882;28;20482;-77
2022/08/02 01:25:27;;;;;;;5.15;2.60;;;16.50;99.90;;;;;;5052289;28;20122;-77
2022/08/02 01:28:20;;;;;;;3.08;1.95;;;16.50;99.90;;;;;;5035476;28;20033;-77
2022/08/02 01:30:48;;;;;;;3.60;1.65;;;16.50;99.90;;;;;;5050646;28;20017;-76
2022/08/02 01:33:18;;;;;;;2.53;1.73;;;16.50;99.90;;;;;;5052102;28;20201;-76
2022/08/02 01:35:52;;;;;;;2.47;1.98;;;16.40;99.90;;;;;;5052179;28;20146;-76
2022/08/02 01:38:31;;;;;;;3.05;1.73;;;16.40;99.90;;;;;;5050668;28;20360;-76
2022/08/02 01:41:00;;;;;;;2.53;1.48;;;16.40;99.90;;;;;;5052118;28;20044;-76
2022/08/02 01:43:28;;;;;;;3.42;1.90;;;16.40;99.90;;;;;;5051727;28;20086;-76
2022/08/02 01:45:55;;;;;;;2.30;1.80;;;16.40;99.90;;;;;;5051866;28;20063;-76
2022/08/02 01:48:22;;;;;;;3.10;2.00;;;16.30;99.90;;;;;;5051684;28;20024;-76
2022/08/02 01:50:50;;;;;;;2.95;1.98;;;16.30;99.90;;;;;;5051725;28;20036;-76
2022/08/02 01:53:19;;;;;;;5.35;2.13;;;16.30;99.90;;;;;;5051713;28;20029;-76
2022/08/02 01:55:53;;;;;;;2.53;1.60;;;16.30;99.90;;;;;;5051421;28;20060;-76
2022/08/02 01:58:21;;;;;;;3.15;1.70;;;16.30;99.90;;;;;;5051516;28;20048;-76
2022/08/02 02:00:48;;;;;;;2.45;1.90;;;16.30;99.90;;;;;;5051672;28;20052;-76
2022/08/02 02:03:18;;;;;;;2.80;2.13;;;16.30;99.90;;;;;;5051503;28;20427;-76
2022/08/02 02:05:47;;;;;;;4.32;2.20;;;16.30;99.90;;;;;;5051470;28;20017;-76
2022/08/02 02:08:16;;;;;;;3.10;2.13;;;16.30;99.90;;;;;;5051451;28;20025;-76
2022/08/02 02:10:44;;;;;;;2.45;1.85;;;16.20;99.90;;;;;;5051500;28;20037;-76
2022/08/02 02:13:17;;;;;;;2.60;2.00;;;16.20;99.90;;;;;;5045156;28;20490;-76
2022/08/02 02:15:46;;;;;;;2.92;1.98;;;16.20;99.90;;;;;;5048006;28;20044;-76
2022/08/02 02:18:22;;;;;;;3.17;1.98;;;16.20;99.90;;;;;;5051322;28;20050;-76
2022/08/02 02:20:48;;;;;;;2.58;2.17;;;16.20;99.90;;;;;;5051231;28;20024;-76
2022/08/02 02:23:16;;;;;;;2.55;1.88;;;16.20;99.90;;;;;;5051170;28;20045;-76
2022/08/02 02:25:42;;;;;;;2.45;1.92;;;16.20;99.90;;;;;;5051159;28;20079;-76
2022/08/02 02:28:13;;;;;;;2.30;1.83;;;16.10;99.90;;;;;;5051138;28;20033;-76
2022/08/02 02:30:45;;;;;;;3.85;2.20;;;16.10;99.90;;;;;;5051344;28;20029;-76
2022/08/02 02:33:12;;;;;;;2.60;1.98;;;16.20;99.90;;;;;;5050639;28;20033;-76
2022/08/02 02:35:40;;;;;;;4.60;2.03;;;16.20;99.90;;;;;;5050624;28;20028;-76
2022/08/02 02:38:11;;;;;;;4.30;2.20;;;16.10;99.90;;;;;;5050995;28;20032;-76
2022/08/02 02:40:38;;;;;;;4.15;2.10;;;16.10;99.90;;;;;;5050858;28;20071;-76
2022/08/02 02:43:05;;;;;;;4.57;2.20;;;16.10;99.90;;;;;;5050851;28;20100;-76
2022/08/02 02:45:32;;;;;;;3.47;1.77;;;16.10;99.90;;;;;;5049569;28;20020;-76
2022/08/02 02:48:00;;;;;;;4.40;2.28;;;16.10;99.90;;;;;;5050665;28;20025;-76
2022/08/02 02:50:26;;;;;;;4.25;2.25;;;16.10;99.90;;;;;;5050841;28;20036;-76
2022/08/02 02:52:53;;;;;;;5.07;2.40;;;16.10;99.90;;;;;;5050632;28;20120;-76
2022/08/02 02:55:20;;;;;;;6.93;2.40;;;16.10;99.90;;;;;;5050720;28;20037;-76
2022/08/02 02:57:46;;;;;;;4.47;1.90;;;16.10;99.90;;;;;;5050808;28;20060;-76
2022/08/02 03:00:13;;;;;;;3.63;2.20;;;16.00;99.90;;;;;;5050452;28;20021;-76
2022/08/02 03:02:41;;;;;;;3.65;2.13;;;16.00;99.90;;;;;;5050590;28;20013;-76
2022/08/02 03:05:08;;;;;;;2.85;2.10;;;16.00;99.90;;;;;;5050427;28;20068;-76
2022/08/02 03:07:34;;;;;;;3.13;2.25;;;16.00;99.90;;;;;;5050506;28;20546;-76
2022/08/02 03:10:03;;;;;;;5.97;2.25;;;15.90;99.90;;;;;;5050391;28;20108;-76
2022/08/02 03:12:30;;;;;;;5.80;2.65;;;16.00;99.90;;;;;;5047148;28;20037;-76
2022/08/02 03:14:57;;;;;;;5.63;2.55;;;16.00;99.90;;;;;;5044809;28;20486;-76
2022/08/02 03:17:23;;;;;;;3.95;2.17;;;16.00;99.90;;;;;;5050213;28;20355;-76
2022/08/02 03:19:49;;;;;;;4.93;2.10;;;15.90;99.90;;;;;;5050355;28;20028;-76
2022/08/02 03:22:14;;;;;;;5.68;2.38;;;15.90;99.90;;;;;;5050285;28;20021;-76
2022/08/02 03:24:40;;;;;;;3.58;2.45;;;15.90;99.90;;;;;;5050337;28;20029;-76
2022/08/02 03:27:05;;;;;;;3.42;2.05;;;15.90;99.90;;;;;;5050327;28;20460;-76
2022/08/02 03:29:31;;;;;;;3.92;2.22;;;15.80;99.90;;;;;;5050094;28;20024;-76
2022/08/02 03:31:57;;;;;;;5.80;2.40;;;15.80;99.90;;;;;;5050154;28;20029;-76
2022/08/02 03:34:23;;;;;;;4.05;2.22;;;15.80;99.90;;;;;;5049962;28;20545;-76
2022/08/02 03:36:53;;;;;;;6.13;2.45;;;15.80;99.90;;;;;;5050253;28;20104;-76
2022/08/02 03:39:20;;;;;;;4.65;2.30;;;15.70;99.90;;;;;;5048819;28;20017;-76
2022/08/02 03:41:48;;;;;;;2.58;2.20;;;15.70;99.90;;;;;;5050326;28;20558;-76
2022/08/02 03:44:15;;;;;;;4.50;2.45;;;15.70;99.90;;;;;;5049996;28;20108;-76
2022/08/02 03:46:42;;;;;;;3.60;2.22;;;15.70;99.90;;;;;;5053671;28;20021;-76
2022/08/02 03:49:09;;;;;;;5.47;2.53;;;15.60;99.90;;;;;;5053970;28;20047;-76
2022/08/02 03:51:35;;;;;;;4.38;2.45;;;15.70;99.90;;;;;;5053947;28;20370;-76
2022/08/02 03:54:01;;;;;;;4.13;2.38;;;15.60;99.90;;;;;;5054063;28;20037;-76
2022/08/02 03:56:28;;;;;;;5.00;2.63;;;15.70;99.90;;;;;;5053790;28;20084;-76
2022/08/02 03:59:10;;;;;;;4.20;2.85;;;15.60;99.90;;;;;;5053652;28;20101;-76
2022/08/02 04:01:36;;;;;;;6.43;3.03;;;15.60;99.90;;;;;;5053558;28;20017;-76
2022/08/02 04:04:02;;;;;;;3.33;2.67;;;15.60;99.90;;;;;;5053703;28;20527;-76
2022/08/02 04:06:28;;;;;;;4.38;2.65;;;15.60;99.90;;;;;;5054031;28;20029;-76
2022/08/02 04:08:53;;;;;;;3.88;2.58;;;15.60;99.90;;;;;;5062829;28;20035;-76
2022/08/02 04:11:31;;;;;;;4.20;2.45;;;15.60;99.90;;;;;;5063836;28;20025;-76
2022/08/02 04:13:59;;;;;;;5.78;2.80;;;15.60;99.90;;;;;;5059451;28;20033;-76
2022/08/02 04:16:41;;;;;;;4.60;2.70;;;15.60;99.90;;;;;;5069109;28;20417;-79
2022/08/02 04:19:15;;;;;;;3.45;2.53;;;15.60;99.90;;;;;;5067624;28;20028;-76
2022/08/02 04:21:44;;;;;;;4.88;2.63;;;15.60;99.90;;;;;;5068355;28;20217;-76
2022/08/02 04:24:11;;;;;;;3.75;2.65;;;15.50;99.90;;;;;;5069715;28;20099;-75
2022/08/02 04:26:42;;;;;;;5.10;2.60;;;15.60;99.90;;;;;;5068295;28;20021;-75
2022/08/02 04:29:09;;;;;;;3.42;2.78;;;15.60;99.90;;;;;;5069223;28;20445;-75
2022/08/02 04:31:35;;;;;;;7.43;2.88;;;15.60;99.90;;;;;;5066296;28;20025;-75
2022/08/02 04:34:01;;;;;;;3.88;2.90;;;15.60;99.90;;;;;;5066086;28;20038;-74
2022/08/02 04:36:27;;;;;;;5.78;2.80;;;15.70;99.90;;;;;;5066135;28;20032;-75
2022/08/02 04:38:53;;;;;;;7.05;3.00;;;15.70;99.90;;;;;;5067950;28;20025;-75
2022/08/02 04:41:18;;;;;;;6.13;2.97;;;15.70;99.90;;;;;;5065001;28;20013;-75
2022/08/02 04:43:44;;;;;;;6.97;2.97;;;15.70;99.90;;;;;;5063186;28;20024;-75
2022/08/02 04:46:10;;;;;;;5.30;2.80;;;15.70;99.90;;;;;;5068412;28;20025;-75
2022/08/02 04:48:35;;;;;;;3.30;2.80;;;15.70;99.90;;;;;;5064845;28;20064;-75
2022/08/02 04:51:01;;;;;;;4.97;3.00;;;15.70;99.90;;;;;;5062984;28;20088;-75
2022/08/02 04:53:27;;;;;;;5.25;2.90;;;15.70;99.90;;;;;;5060931;28;20117;-75
2022/08/02 04:55:52;;;;;;;5.15;2.80;;;15.80;99.90;;;;;;5062413;28;20044;-75
2022/08/02 04:58:18;;;;;;;6.85;2.60;;;15.80;99.90;;;;;;5061046;28;20032;-75
2022/08/02 05:00:44;;;;;;;9.38;3.00;;;15.80;99.90;;;;;;5062827;28;20025;-71
2022/08/02 05:03:09;;;;;;;4.18;2.97;;;15.80;99.90;;;;;;5051456;28;20025;-71
2022/08/02 05:05:35;;;;;;;5.05;2.60;;;15.90;99.90;;;;;;5053277;28;20084;-70
2022/08/02 05:08:01;;;;;;;6.72;3.47;;;15.90;99.90;;;;;;5051770;28;20033;-72
2022/08/02 05:10:27;;;;;;;7.53;3.08;;;15.90;99.90;;;;;;5050510;28;20024;-70
2022/08/02 05:12:53;;;;;;;5.88;4.13;;;16.00;99.90;;;;;;5044689;28;20401;-70
2022/08/02 05:15:18;;;;;;;5.18;3.20;;;15.90;99.90;;;;;;5044973;28;20036;-70
2022/08/02 05:17:45;;;;;;;4.13;3.00;;;16.00;99.90;;;;;;5051766;28;20419;-70
2022/08/02 05:20:13;;;;;;;4.18;3.00;;;16.10;99.90;;;;;;5051689;28;20033;-70
2022/08/02 05:22:39;;;;;;;4.75;3.22;;;16.20;99.90;;;;;;5052002;28;20029;-71
2022/08/02 05:25:05;;;;;;;4.60;3.00;;;16.20;99.90;;;;;;5051108;28;20025;-70
2022/08/02 05:27:32;;;;;;;6.50;3.70;;;16.30;99.90;;;;;;5051239;28;20039;-70
2022/08/02 05:29:58;;;;;;;4.40;2.60;;;16.40;99.90;;;;;;5051164;28;20039;-70
2022/08/02 05:32:24;;;;;;;4.00;2.60;;;16.50;99.90;;;;;;5049966;28;20063;-70
2022/08/02 05:34:50;;;;;;;5.10;2.60;;;16.60;99.90;;;;;;5050686;28;20025;-70
2022/08/02 05:37:16;;;;;;;6.18;2.97;;;16.70;99.90;;;;;;5051288;28;20036;-70
2022/08/02 05:39:41;;;;;;;6.18;2.95;;;16.70;99.90;;;;;;5049747;28;20195;-70
2022/08/02 05:42:07;;;;;;;5.28;2.70;;;16.80;99.90;;;;;;5051322;28;20029;-70
2022/08/02 05:44:32;;;;;;;3.00;2.40;;;16.90;99.90;;;;;;5051109;28;20675;-70
2022/08/02 05:46:58;;;;;;;4.95;2.40;;;17.00;99.90;;;;;;5051268;28;20039;-70
2022/08/02 05:49:23;;;;;;;5.32;2.40;;;17.10;99.90;;;;;;5050709;28;20040;-70
2022/08/02 05:52:10;;;;;;;2.88;2.33;;;17.20;99.90;;;;;;5050975;28;20033;-70
2022/08/02 05:54:53;;;;;;;7.57;2.60;;;17.30;99.90;;;;;;5047025;28;20041;-70
2022/08/02 05:57:46;;;;;;;5.63;2.83;;;17.40;99.90;;;;;;5049422;28;20033;-70
2022/08/02 06:00:13;;;;;;;4.30;2.20;;;17.50;99.90;;;;;;5048584;28;20107;-70
2022/08/02 06:02:42;;;;;;;4.18;2.13;;;17.60;99.90;;;;;;5049085;28;20033;-70
2022/08/02 06:05:14;;;;;;;5.72;2.10;;;17.70;99.90;;;;;;5047779;28;20351;-70
2022/08/02 06:07:43;;;;;;;3.83;2.13;;;17.80;99.90;;;;;;5048799;28;20094;-70
2022/08/02 06:10:13;;;;;;;3.63;1.83;;;18.00;99.90;;;;;;5047551;28;20029;-70
2022/08/02 06:12:53;;;;;;;2.50;1.88;;;18.00;99.90;;;;;;5047611;28;20456;-70
2022/08/02 06:15:19;;;;;;;3.38;1.90;;;18.10;99.90;;;;;;5048221;28;20120;-70
2022/08/02 06:17:45;;;;;;;3.47;2.00;;;18.20;99.90;;;;;;5048670;28;20025;-70
2022/08/02 06:20:12;;;;;;;3.20;2.00;;;18.30;99.90;;;;;;5050173;28;20036;-70
2022/08/02 06:22:42;;;;;;;5.13;1.98;;;18.40;99.90;;;;;;5048857;28;20112;-70
2022/08/02 06:25:09;;;;;;;3.97;2.00;;;18.50;99.90;;;;;;5047531;28;20021;-71
2022/08/02 06:27:35;;;;;;;2.30;1.73;;;18.60;99.90;;;;;;5048338;28;20029;-70
2022/08/02 06:30:03;;;;;;;3.20;2.10;;;18.70;99.90;;;;;;5048462;28;20478;-70
2022/08/02 06:32:30;;;;;;;2.65;1.52;;;18.90;99.90;;;;;;5047981;28;20056;-70
2022/08/02 06:34:55;;;;;;;3.10;1.80;;;18.90;99.90;;;;;;5047195;28;20029;-71
2022/08/02 06:37:59;;;;;;;3.15;2.13;;;19.10;99.90;;;;;;5048125;28;20465;-73
2022/08/02 06:40:47;;;;;;;4.55;2.05;;;19.20;99.90;;;;;;4999598;28;20037;-73
2022/08/02 06:43:22;;;;;;;3.03;1.73;;;19.30;99.90;;;;;;5040868;28;20056;-73
2022/08/02 06:45:47;;;;;;;2.83;1.80;;;19.40;99.90;;;;;;5049545;28;20047;-74
2022/08/02 06:48:13;;;;;;;2.78;1.77;;;19.50;99.90;;;;;;5049509;28;20048;-73
2022/08/02 06:50:40;;;;;;;2.63;1.80;;;19.50;99.90;;;;;;5049035;28;20037;-73
2022/08/02 06:53:08;;;;;;;3.25;2.03;;;19.50;99.90;;;;;;5048106;28;20029;-73
2022/08/02 06:55:34;;;;;;;3.72;2.00;;;19.50;99.90;;;;;;5048665;28;20044;-73
2022/08/02 06:57:59;;;;;;;2.92;1.77;;;19.50;99.90;;;;;;5048812;28;20501;-72
2022/08/02 07:00:25;;;;;;;3.38;2.10;;;19.50;99.90;;;;;;5048458;28;20029;-73
2022/08/02 07:02:52;;;;;;;3.30;1.85;;;19.50;99.90;;;;;;5048380;28;20128;-72
2022/08/02 07:05:18;;;;;;;3.42;2.00;;;19.50;99.90;;;;;;5047942;28;20035;-72
2022/08/02 07:07:44;;;;;;;4.05;1.85;;;19.50;99.90;;;;;;5049061;28;20056;-72
2022/08/02 07:10:11;;;;;;;3.45;2.22;;;19.60;99.90;;;;;;5049162;28;20556;-72
2022/08/02 07:12:36;;;;;;;3.55;1.70;;;19.60;99.90;;;;;;5043779;28;20110;-72
2022/08/02 07:15:05;;;;;;;3.38;2.05;;;19.70;99.90;;;;;;5041619;28;20052;-72
2022/08/02 07:17:31;;;;;;;2.65;1.90;;;19.80;99.90;;;;;;5050068;28;20033;-72
2022/08/02 07:19:57;;;;;;;3.05;1.67;;;19.90;99.90;;;;;;5049675;28;20017;-72
2022/08/02 07:22:25;;;;;;;2.45;1.70;;;20.00;99.90;;;;;;5050092;28;20025;-72
2022/08/02 07:24:51;;;;;;;5.82;2.00;;;20.10;99.90;;;;;;5064692;28;20469;-72
2022/08/02 07:27:17;;;;;;;2.92;1.90;;;20.10;99.90;;;;;;5067449;28;20103;-71
2022/08/02 07:29:42;;;;;;;3.55;2.00;;;20.10;99.90;;;;;;5055428;28;20485;-72
2022/08/02 07:32:08;;;;;;;3.33;1.75;;;20.20;99.90;;;;;;5049834;28;20083;-72
2022/08/02 07:34:33;;;;;;;2.97;1.80;;;20.20;99.90;;;;;;5049631;28;20113;-72
2022/08/02 07:36:59;;;;;;;4.28;1.70;;;20.30;99.90;;;;;;5049718;28;20057;-72
2022/08/02 07:39:24;;;;;;;2.63;2.05;;;20.40;99.90;;;;;;5049346;28;20488;-72
2022/08/02 07:41:51;;;;;;;2.65;1.80;;;20.50;99.90;;;;;;5049848;28;20017;-70
2022/08/02 07:44:17;;;;;;;2.75;1.90;;;20.50;99.90;;;;;;5050057;28;20098;-70
2022/08/02 07:46:43;;;;;;;2.38;1.70;;;20.50;99.90;;;;;;5059941;28;20029;-70
2022/08/02 07:49:09;;;;;;;4.43;1.90;;;20.50;99.90;;;;;;5065288;28;20443;-70
2022/08/02 07:51:35;;;;;;;3.10;1.70;;;20.60;99.90;;;;;;5049863;28;20029;-71
2022/08/02 07:54:01;;;;;;;2.45;1.63;;;20.70;99.90;;;;;;5049778;28;20079;-71
2022/08/02 07:56:27;;;;;;;5.68;2.20;;;20.80;99.90;;;;;;5049755;28;20055;-70
2022/08/02 07:58:53;;;;;;;3.00;1.83;;;20.80;99.90;;;;;;5049536;28;20405;-70
2022/08/02 08:01:19;;;;;;;2.70;1.98;;;20.80;99.90;;;;;;5050081;28;20817;-70
2022/08/02 08:03:45;;;;;;;2.65;1.90;;;20.90;99.90;;;;;;5049717;28;20111;-70
2022/08/02 08:06:10;;;;;;;2.40;1.80;;;21.00;99.90;;;;;;5049894;28;20024;-70
2022/08/02 08:08:36;;;;;;;3.50;1.73;;;21.10;99.90;;;;;;5049406;28;20422;-74
2022/08/02 08:11:02;;;;;;;2.33;1.85;;;21.20;99.90;;;;;;5050211;28;20424;-70
2022/08/02 08:13:28;;;;;;;2.22;1.77;;;21.20;99.90;;;;;;5042928;28;20064;-70
2022/08/02 08:15:53;;;;;;;2.83;1.80;;;21.30;99.90;;;;;;5041258;28;20048;-70
2022/08/02 08:18:20;;;;;;;1.77;1.52;;;21.30;99.90;;;;;;5049375;28;20074;-70
2022/08/02 08:20:46;;;;;;;3.83;1.60;;;21.40;99.90;;;;;;5049620;28;20059;-71
2022/08/02 08:23:11;;;;;;;4.80;1.95;;;21.50;99.90;;;;;;5049479;28;20056;-70
2022/08/02 08:25:37;;;;;;;4.25;1.83;;;21.60;99.90;;;;;;5049537;28;20029;-70
2022/08/02 08:28:03;;;;;;;3.55;1.58;;;21.60;99.90;;;;;;5049293;28;20048;-70
2022/08/02 08:30:29;;;;;;;2.80;1.90;;;21.80;99.90;;;;;;5048554;28;20037;-71
2022/08/02 08:32:54;;;;;;;3.03;1.88;;;21.80;99.90;;;;;;5051487;28;20036;-73
2022/08/02 08:35:20;;;;;;;4.22;1.95;;;21.90;99.90;;;;;;5052871;28;20029;-73
2022/08/02 08:37:46;;;;;;;2.97;1.80;;;21.90;99.90;;;;;;5052590;28;20401;-73
2022/08/02 08:40:12;;;;;;;3.13;1.83;;;22.00;99.90;;;;;;5052769;28;20067;-72
2022/08/02 08:42:38;;;;;;;2.55;1.70;;;22.20;99.90;;;;;;5053112;28;20045;-73
2022/08/02 08:45:05;;;;;;;1.85;1.40;;;22.30;99.90;;;;;;5052965;28;20109;-72
2022/08/02 08:47:41;;;;;;;2.78;1.48;;;22.40;99.90;;;;;;5052778;28;20024;-73
2022/08/02 08:50:17;;;;;;;2.40;1.30;;;22.40;99.90;;;;;;5052665;28;20090;-73
2022/08/02 08:52:48;;;;;;;10.77;2.50;;;22.40;99.90;;;;;;5052795;28;20479;-73
2022/08/02 08:55:14;;;;;;;3.67;1.90;;;22.40;99.90;;;;;;5052355;28;20485;-73
2022/08/02 08:57:42;;;;;;;2.55;1.60;;;22.50;99.90;;;;;;5052786;28;20088;-73
2022/08/02 09:00:11;;;;;;;2.05;1.33;;;22.60;99.90;;;;;;5052354;28;20528;-72
2022/08/02 09:02:40;;;;;;;2.08;1.60;;;22.70;99.90;;;;;;5052627;28;20029;-73
2022/08/02 09:05:09;;;;;;;4.60;2.00;;;22.70;99.90;;;;;;5052611;28;20032;-73
2022/08/02 09:07:35;;;;;;;1.83;1.60;;;22.70;99.90;;;;;;5043261;28;20052;-72
2022/08/02 09:10:21;;;;;;;2.05;1.70;;;22.70;99.90;;;;;;5047267;28;20041;-73
2022/08/02 09:13:07;;;;;;;2.50;1.60;;;22.70;99.90;;;;;;5045940;28;20136;-72
2022/08/02 09:15:33;;;;;;;2.67;1.50;;;22.80;99.90;;;;;;5050371;28;20473;-72
2022/08/02 09:17:58;;;;;;;1.88;1.60;;;22.90;99.90;;;;;;5052147;28;20033;-72
2022/08/02 09:20:24;;;;;;;2.00;1.40;;;23.00;99.90;;;;;;5052351;28;20044;-73
2022/08/02 09:23:10;;;;;;;2.88;1.70;;;23.30;99.90;;;;;;5052225;28;20028;-73
2022/08/02 09:25:36;;;;;;;3.03;1.50;;;23.50;99.90;;;;;;5058881;28;20108;-73
2022/08/02 09:28:03;;;;;;;1.60;1.50;;;23.80;99.90;;;;;;5069205;28;20036;-73
2022/08/02 09:30:29;;;;;;;1.85;1.30;;;23.90;99.90;;;;;;5056108;28;20513;-73
2022/08/02 09:32:55;;;;;;;2.75;1.40;;;24.10;99.90;;;;;;5052092;28;20474;-79
2022/08/02 09:35:39;;;;;;;2.47;1.48;;;24.40;99.90;;;;;;5052054;28;20047;-74
2022/08/02 09:38:13;;;;;;;4.87;1.30;;;24.50;99.90;;;;;;5051564;28;20052;-74
2022/08/02 09:40:40;;;;;;;2.50;1.80;;;24.60;99.90;;;;;;5052048;28;20083;-74
2022/08/02 09:43:07;;;;;;;5.18;1.40;;;24.50;99.90;;;;;;5051281;28;20025;-74
2022/08/02 09:45:34;;;;;;;3.97;1.40;;;24.60;99.90;;;;;;5048516;28;20397;-74
2022/08/02 09:48:06;;;;;;;1.98;1.40;;;24.70;99.90;;;;;;5049385;28;20040;-74
2022/08/02 09:50:33;;;;;;;2.00;1.25;;;25.00;99.90;;;;;;5049707;28;20025;-74
2022/08/02 09:52:58;;;;;;;2.15;1.30;;;25.50;99.90;;;;;;5049174;28;20036;-74
2022/08/02 09:55:25;;;;;;;1.85;1.25;;;25.80;99.90;;;;;;5049823;28;20734;-74
2022/08/02 09:57:51;;;;;;;2.05;1.30;;;26.00;99.90;;;;;;5048777;28;20033;-74
2022/08/02 10:00:17;;;;;;;3.85;1.50;;;26.00;99.90;;;;;;5049729;28;20031;-74
2022/08/02 10:03:06;;;;;;;1.92;1.45;;;26.00;99.90;;;;;;5049779;28;20493;-78
2022/08/02 10:06:03;;;;;;;2.45;1.20;;;25.70;99.90;;;;;;5049181;28;20032;-74
2022/08/02 10:08:30;;;;;;;3.22;1.50;;;25.50;99.90;;;;;;5048158;28;20021;-74
2022/08/02 10:10:59;;;;;;;3.30;1.50;;;25.70;99.90;;;;;;5049565;28;20057;-74
2022/08/02 10:13:35;;;;;;;2.28;1.30;;;25.70;99.90;;;;;;5046616;28;20441;-74
2022/08/02 10:16:03;;;;;;;2.22;1.40;;;25.90;99.90;;;;;;5049617;28;20044;-74
2022/08/02 10:18:29;;;;;;;2.50;1.02;;;26.10;99.90;;;;;;5050273;28;20021;-74
2022/08/02 10:21:00;;;;;;;3.30;1.30;;;26.50;99.90;;;;;;5051129;28;20427;-74
2022/08/02 10:23:28;;;;;;;4.05;1.45;;;27.10;99.90;;;;;;5050534;28;20014;-74
2022/08/02 10:25:55;;;;;;;1.92;1.10;;;27.20;99.90;;;;;;5050577;28;20032;-74
2022/08/02 10:28:30;;;;;;;11.50;1.60;;;27.40;99.90;;;;;;5049833;28;20100;-74
2022/08/02 10:30:59;;;;;;;3.85;1.20;;;27.30;99.90;;;;;;5050983;28;20507;-80
2022/08/02 10:33:27;;;;;;;1.70;1.20;;;27.30;99.90;;;;;;5050321;28;20084;-73
2022/08/02 10:35:56;;;;;;;1.95;1.30;;;27.20;99.90;;;;;;5051114;28;20027;-73
2022/08/02 10:38:23;;;;;;;1.75;1.20;;;27.40;99.90;;;;;;5050258;28;20137;-73
2022/08/02 10:40:51;;;;;;;2.80;1.17;;;27.40;99.90;;;;;;5050369;28;20018;-74
2022/08/02 10:43:46;;;;;;;2.22;1.20;;;27.70;99.90;;;;;;5049093;28;20592;-74
2022/08/02 10:46:37;;;;;;;4.32;1.17;;;27.60;99.90;;;;;;5041770;28;20037;-73
2022/08/02 10:49:19;;;;;;;1.70;1.40;;;27.70;99.90;;;;;;5050824;28;20021;-73
2022/08/02 10:52:00;;;;;;;2.45;1.20;;;27.70;99.90;;;;;;5051003;28;20141;-73
2022/08/02 10:54:39;;;;;;;2.10;1.30;;;27.50;99.90;;;;;;5049634;28;20025;-73
2022/08/02 10:57:32;;;;;;;3.63;1.50;;;27.50;99.90;;;;;;5050586;28;20036;-79
2022/08/02 11:00:08;;;;;;;4.05;1.35;;;27.90;99.90;;;;;;5063374;28;20058;-79
2022/08/02 11:02:45;;;;;;;3.20;1.23;;;28.20;99.90;;;;;;5066999;28;20452;-80
2022/08/02 11:05:16;;;;;;;3.20;1.27;;;28.50;99.90;;;;;;5063674;28;20017;-79
2022/08/02 11:07:44;;;;;;;3.58;1.20;;;28.80;99.90;;;;;;5068976;28;20299;-79
2022/08/02 11:10:25;;;;;;;3.17;1.40;;;28.80;99.90;;;;;;5068896;28;20030;-79
2022/08/02 11:13:13;;;;;;;5.07;1.00;;;28.90;99.90;;;;;;5061498;28;20135;-80
2022/08/02 11:16:08;;;;;;;1.35;1.00;;;29.10;99.90;;;;;;5045298;28;20100;-80
2022/08/02 11:18:43;;;;;;;;;;;29.10;99.90;;;;;;5045857;28;20033;-76
2022/08/02 11:21:23;;;;;;;1.77;1.10;;;29.40;99.90;;;;;;5050462;28;19909;-76
2022/08/02 11:23:49;;;;;;;2.00;1.33;;;29.50;99.90;;;;;;5046864;28;20025;-76
2022/08/02 11:26:30;;;;;;;1.48;1.10;;;29.50;99.90;;;;;;5048359;28;20036;-76
2022/08/02 11:29:03;;;;;;;3.90;1.17;;;29.30;99.90;;;;;;5048438;28;20029;-75
2022/08/02 11:31:41;;;;;;;1.63;1.30;;;29.60;99.90;;;;;;5048340;28;20377;-75
2022/08/02 11:34:08;;;;;;;1.33;1.00;;;30.00;99.90;;;;;;5046468;28;20117;-76
2022/08/02 11:36:46;;;;;;;1.48;0.98;;;30.00;99.90;;;;;;5048440;28;20025;-76
2022/08/02 11:39:14;;;;;;;1.45;1.10;;;30.50;99.90;;;;;;5048277;28;20045;-76
2022/08/02 11:41:39;;;;;;;2.25;1.20;;;30.40;99.90;;;;;;5048353;28;20099;-75
2022/08/02 11:44:05;;;;;;;2.83;1.30;;;30.70;99.90;;;;;;5047584;28;20033;-76
2022/08/02 11:46:31;;;;;;;3.85;1.20;;;30.90;99.90;;;;;;5048521;28;20528;-76
2022/08/02 11:48:56;;;;;;;2.15;1.20;;;30.70;99.90;;;;;;5047767;28;20021;-76
2022/08/02 11:51:22;;;;;;;1.65;1.00;;;30.60;99.90;;;;;;5048322;28;20025;-76
2022/08/02 11:53:51;;;;;;;2.63;1.02;;;30.70;99.90;;;;;;5047154;28;20028;-76
2022/08/02 11:56:28;;;;;;;3.08;1.48;;;30.50;99.90;;;;;;5052836;28;20045;-77
2022/08/02 11:59:06;;;;;;;1.52;0.90;;;30.80;99.90;;;;;;5055216;28;20485;-76
2022/08/02 12:01:32;;;;;;;2.60;1.02;;;30.80;99.90;;;;;;5055781;28;20036;-76
2022/08/02 12:03:59;;;;;;;1.95;1.10;;;30.90;99.90;;;;;;5056210;28;20385;-77
2022/08/02 12:06:29;;;;;;;2.85;0.90;;;31.30;99.90;;;;;;5052862;28;20462;-76
2022/08/02 12:09:13;;;;;;;1.20;0.82;;;31.40;99.90;;;;;;5051885;28;20056;-76
2022/08/02 12:11:41;;;;;;;1.90;1.13;;;31.70;99.90;;;;;;5048827;28;20091;-76
2022/08/02 12:14:06;;;;;;;2.88;1.10;;;31.70;99.90;;;;;;5050482;28;20027;-76
2022/08/02 12:19:25;;;;;;;1.77;1.00;;;32.20;99.90;;;;;;5051997;28;20107;-76
2022/08/02 12:22:06;;;;;;;2.83;0.90;;;32.60;99.10;;;;;;5051900;28;20036;-76
2022/08/02 12:24:32;;;;;;;1.80;1.10;;;32.20;99.90;;;;;;5050502;28;20036;-76
2022/08/02 12:26:58;;;;;;;1.80;1.00;;;32.50;99.70;;;;;;5051377;28;20029;-76
2022/08/02 12:29:38;;;;;;;1.63;0.90;;;32.70;99.70;;;;;;5051404;28;20119;-76
2022/08/02 12:32:05;;;;;;;1.20;0.88;;;32.90;98.30;;;;;;5051574;28;20120;-76
2022/08/02 12:34:33;;;;;;;1.52;1.00;;;32.80;97.40;;;;;;5050549;28;20023;-76
2022/08/02 12:37:08;;;;;;;1.88;0.68;;;32.80;96.00;;;;;;5053218;28;20033;-76
2022/08/02 12:39:37;;;;;;;1.60;0.95;;;33.00;95.20;;;;;;5053234;28;20431;-76
2022/08/02 12:42:04;;;;;;;1.45;0.90;;;33.10;95.10;;;;;;5053347;28;20017;-76
2022/08/02 12:44:30;;;;;;;3.05;0.90;;;32.60;95.30;;;;;;5053173;28;20060;-76
2022/08/02 12:47:05;;;;;;;2.05;1.00;;;31.90;94.40;;;;;;5052949;28;20053;-76
2022/08/02 12:49:30;;;;;;;1.30;0.80;;;31.30;94.80;;;;;;5052906;28;20025;-76
2022/08/02 12:51:56;;;;;;;1.35;1.00;;;31.00;94.80;;;;;;5052976;28;20032;-76
2022/08/02 12:54:28;;;;;;;1.17;0.80;;;30.80;95.10;;;;;;5052636;28;20032;-76
2022/08/02 12:56:53;;;;;;;1.00;0.90;;;30.90;95.20;;;;;;5052684;28;20021;-76
2022/08/02 12:59:37;;;;;;;1.85;0.90;;;30.80;94.70;;;;;;5052701;28;20020;-76
2022/08/02 13:02:08;;;;;;;1.63;0.93;;;30.50;95.10;;;;;;5052518;28;20029;-76